Latest Weather Observations for Leigh Creek

IDS60801

Issued at 5:02 pm CDT Wednesday 28 January 2015 (issued every 30 minutes, with the page automatically refreshed every 10 minutes)

About weather observations | Map of weather stations | Latest weather observations for SA | Other Formats
Station Details ID: 017110 Name: LEIGH CREEK AIRPORT Lat: -30.60 Lon: 138.42 Height: 258.8 m
Data from the previous 72 hours. | See also: Recent months at Leigh Creek
Date/Time
CDT
Temp
°C
App
Temp
°C
Dew
Point
Rel
Hum
%
Delta-T
°C
Wind Press
QNH
hPa
Press
MSL
hPa
Rain
since 9 am
mm
Dir
 
Spd
km/h
Gust
km/h
Spd
kts
Gust
kts
28/05:00pm 30.4 24.0 3.4 18 13.9 S 26 35 14 19 1010.4 1008.7 0.0
28/04:30pm 30.0 25.3 3.1 18 13.7 S 17 24 9 13 1010.7 1009.0 0.0
28/04:00pm 30.1 23.9 2.4 17 14.0 S 24 35 13 19 1010.9 1009.2 0.0
28/03:30pm 29.6 25.2 2.8 18 13.6 S 15 30 8 16 1011.1 1009.4 0.0
28/03:00pm 29.4 24.2 2.6 18 13.5 SSE 19 32 10 17 1011.6 1010.0 0.0
28/02:30pm 29.3 23.6 4.7 21 12.8 S 24 39 13 21 1012.1 1010.5 0.0
28/02:00pm 28.1 22.9 3.7 21 12.4 S 20 37 11 20 1012.5 1010.8 0.0
28/01:30pm 27.9 23.7 3.6 21 12.3 S 15 28 8 15 1012.9 1011.2 0.0
28/01:00pm 26.6 22.1 4.4 24 11.3 S 17 33 9 18 1013.2 1011.5 0.0
28/12:30pm 26.0 21.9 4.5 25 11.0 SSE 15 26 8 14 1013.7 1012.0 0.0
28/12:00pm 25.4 21.0 4.5 26 10.6 SE 17 24 9 13 1014.0 1012.3 0.0
28/11:30am 24.4 20.5 5.2 29 9.8 SE 15 22 8 12 1014.3 1012.6 0.0
28/11:00am 23.9 20.0 5.3 30 9.5 SE 15 24 8 13 1014.6 1012.9 0.0
28/10:30am 23.8 19.6 5.7 31 9.3 SE 17 28 9 15 1014.5 1012.8 0.0
28/10:00am 23.2 19.4 5.6 32 9.0 SE 15 26 8 14 1014.5 1012.8 0.0
28/09:30am 22.8 18.9 5.3 32 8.9 SE 15 26 8 14 1014.4 1012.7 0.0
28/09:00am 21.0 16.7 5.4 36 7.8 SE 17 24 9 13 1014.1 1012.4 0.0
28/08:30am 20.1 16.2 5.4 38 7.3 SE 15 22 8 12 1013.8 1012.1 0.0
28/08:00am 18.7 15.3 5.9 43 6.4 S 13 17 7 9 1013.5 1011.8 0.0
28/07:30am 17.8 15.1 5.7 45 6.0 SSE 9 17 5 9 1013.2 1011.5 0.0
28/07:00am 16.8 12.9 5.4 47 5.6 SSE 15 20 8 11 1012.8 1011.1 0.0
28/06:30am 17.0 13.5 5.3 46 5.7 SSE 13 24 7 13 1012.5 1010.8 0.0
28/06:00am 16.2 12.3 5.5 49 5.2 S 15 19 8 10 1012.3 1010.7 0.0
28/05:30am 16.2 11.6 5.8 50 5.1 S 19 24 10 13 1012.0 1010.4 0.0
28/05:00am 16.8 12.0 5.4 47 5.6 SSW 20 24 11 13 1011.7 1010.1 0.0
28/04:30am 19.0 15.6 2.0 32 7.9 SSE 9 15 5 8 1011.6 1010.0 0.0
28/04:00am 19.1 15.0 2.0 32 7.9 S 13 17 7 9 1011.7 1010.1 0.0
28/03:30am 19.2 15.8 1.7 31 8.1 SSE 9 11 5 6 1011.7 1010.1 0.0
28/03:00am 19.7 16.7 1.7 30 8.3 SSE 7 11 4 6 1012.0 1010.4 0.0
28/02:30am 20.4 16.6 1.8 29 8.7 SE 11 19 6 10 1012.2 1010.6 0.0
28/02:00am 21.0 16.8 1.8 28 9.0 SE 13 22 7 12 1012.3 1010.7 0.0
28/01:30am 21.4 16.4 1.6 27 9.3 SE 17 26 9 14 1012.6 1010.9 0.0
28/01:00am 21.8 16.9 2.0 27 9.4 SE 17 26 9 14 1012.8 1011.1 0.0
28/12:30am 22.1 16.6 1.7 26 9.6 SE 20 32 11 17 1013.0 1011.3 0.0
28/12:00am 22.7 17.1 1.1 24 10.1 SE 20 32 11 17 1012.7 1011.0 0.0
 
Date/Time
CDT
Temp
°C
App
Temp
°C
Dew
Point
Rel
Hum
%
Delta-T
°C
Wind Press
QNH
hPa
Press
MSL
hPa
Rain
since 9 am
mm
Dir
 
Spd
km/h
Gust
km/h
Spd
kts
Gust
kts
27/11:30pm 23.3 16.6 1.6 24 10.3 SE 26 37 14 20 1012.6 1010.9 0.0
27/11:00pm 23.6 18.3 1.9 24 10.4 SE 19 26 10 14 1012.6 1010.9 0.0
27/10:30pm 24.0 18.5 1.6 23 10.7 SE 20 28 11 15 1012.3 1010.7 0.0
27/10:00pm 24.5 18.6 2.0 23 10.8 ESE 22 30 12 16 1012.0 1010.4 0.0
27/09:30pm 24.9 20.1 2.4 23 11.0 SE 17 22 9 12 1011.9 1010.3 0.0
27/09:00pm 25.5 20.3 2.2 22 11.4 SE 19 26 10 14 1011.7 1010.1 0.0
27/08:30pm 26.4 21.5 1.7 20 12.0 SE 17 26 9 14 1011.4 1009.7 0.0
27/08:00pm 27.5 22.6 1.8 19 12.6 SE 17 24 9 13 1011.0 1009.3 0.0
27/07:30pm 28.4 24.1 3.3 20 12.7 SE 15 24 8 13 1010.6 1008.9 0.0
27/07:00pm 29.1 24.9 3.9 20 12.9 S 15 28 8 15 1010.4 1008.7 0.0
27/06:30pm 29.2 23.7 3.9 20 13.0 SSW 22 32 12 17 1010.2 1008.5 0.0
27/06:00pm 29.2 24.1 3.2 19 13.2 S 19 33 10 18 1010.2 1008.5 0.0
27/05:30pm 29.2 23.9 3.2 19 13.2 SSW 20 33 11 18 1010.4 1008.7 0.0
27/05:00pm 28.8 23.7 2.9 19 13.1 SSW 19 33 10 18 1010.6 1008.9 0.0
27/04:30pm 28.6 23.0 3.5 20 12.8 S 22 39 12 21 1010.8 1009.1 0.0
27/04:00pm 29.4 23.5 4.1 20 13.1 SSW 24 39 13 21 1010.9 1009.2 0.0
27/03:30pm 29.4 24.2 3.4 19 13.3 SSW 20 41 11 22 1011.2 1009.5 0.0
27/03:00pm 28.2 23.6 1.7 18 13.0 SSE 15 28 8 15 1011.8 1010.2 0.0
27/02:30pm 28.2 23.5 3.1 20 12.7 SE 17 30 9 16 1012.2 1010.6 0.0
27/02:00pm 27.4 22.3 3.2 21 12.2 SE 19 28 10 15 1012.7 1011.0 0.0
27/01:30pm 27.0 21.9 2.8 21 12.0 S 19 30 10 16 1013.1 1011.4 0.0
27/01:00pm 26.0 20.8 3.3 23 11.3 S 20 35 11 19 1013.6 1011.9 0.0
27/12:30pm 25.6 21.3 3.5 24 11.0 S 15 28 8 15 1013.8 1012.1 0.0
27/12:00pm 25.5 21.7 4.0 25 10.8 SSW 13 20 7 11 1013.9 1012.2 0.0
27/11:30am 25.1 20.5 3.7 25 10.7 SSE 17 26 9 14 1014.0 1012.3 0.0
27/11:00am 24.2 19.9 3.5 26 10.2 SSE 15 32 8 17 1014.3 1012.6 0.0
27/10:30am 23.3 19.4 3.3 27 9.8 SSE 13 22 7 12 1014.6 1012.9 0.0
27/10:00am 22.9 18.2 2.9 27 9.7 SE 17 24 9 13 1014.4 1012.7 0.0
27/09:30am 22.4 17.2 3.5 29 9.2 SE 20 28 11 15 1014.6 1012.9 0.0
27/09:00am 21.8 17.5 3.0 29 9.1 SE 15 24 8 13 1014.6 1012.9 0.0
27/08:30am 20.7 15.6 3.0 31 8.5 ESE 19 28 10 15 1014.5 1012.8 0.0
27/08:00am 19.4 14.3 3.2 34 7.7 ESE 19 26 10 14 1014.2 1012.5 0.0
27/07:30am 18.3 14.7 3.0 36 7.2 SE 11 19 6 10 1014.0 1012.3 0.0
27/07:00am 17.3 13.4 3.2 39 6.6 SE 13 17 7 9 1013.8 1012.1 0.0
27/06:30am 17.4 12.7 3.0 38 6.7 SE 17 22 9 12 1013.4 1011.7 0.0
27/06:00am 17.5 14.2 2.7 37 6.9 SE 9 15 5 8 1013.1 1011.4 0.0
27/05:30am 17.8 14.1 2.5 36 7.1 SE 11 17 6 9 1013.0 1011.3 0.0
27/05:00am 18.0 14.0 3.1 37 7.0 SE 13 20 7 11 1012.8 1011.1 0.0
27/04:30am 18.3 14.8 3.4 37 7.0 SE 11 22 6 12 1012.9 1011.2 0.0
27/04:00am 18.5 15.0 3.6 37 7.1 SE 11 20 6 11 1012.8 1011.1 0.0
27/03:30am 19.0 15.1 3.6 36 7.4 SE 13 20 7 11 1012.9 1011.2 0.0
27/03:00am 17.5 14.8 7.5 52 5.1 S 11 17 6 9 1013.0 1011.3 0.0
27/02:30am 17.2 14.0 8.6 57 4.5 S 15 20 8 11 1013.1 1011.4 0.0
27/02:00am 17.3 13.5 9.0 58 4.4 SSW 19 24 10 13 1013.3 1011.6 0.0
27/01:30am 17.6 13.2 9.0 57 4.5 SSW 22 28 12 15 1013.5 1011.8 0.0
27/01:00am 18.0 13.6 9.1 56 4.7 SSW 22 26 12 14 1013.8 1012.1 0.0
27/12:30am 18.5 13.3 9.0 54 5.0 SSW 26 35 14 19 1014.0 1012.3 0.0
27/12:00am 19.1 14.7 9.0 52 5.4 SSW 22 32 12 17 1014.3 1012.6 0.0
 
Date/Time
CDT
Temp
°C
App
Temp
°C
Dew
Point
Rel
Hum
%
Delta-T
°C
Wind Press
QNH
hPa
Press
MSL
hPa
Rain
since 9 am
mm
Dir
 
Spd
km/h
Gust
km/h
Spd
kts
Gust
kts
26/11:30pm 19.8 14.2 8.8 49 5.8 SSW 28 37 15 20 1014.3 1012.6 0.0
26/11:00pm 20.7 14.3 8.7 46 6.4 SSW 32 41 17 22 1014.1 1012.4 0.0
26/10:30pm 21.4 15.6 8.0 42 7.1 SSW 28 39 15 21 1014.1 1012.4 0.0
26/10:00pm 22.2 14.8 6.8 37 8.0 SSW 35 50 19 27 1013.9 1012.2 0.0
26/09:30pm 23.1 15.8 5.5 32 9.0 SSW 33 48 18 26 1013.4 1011.7 0.0
26/09:00pm 23.9 16.5 3.8 27 10.0 SSW 32 41 17 22 1013.0 1011.3 0.0
26/08:30pm 24.8 18.3 0.3 20 11.5 SW 24 35 13 19 1012.7 1011.0 0.0
26/08:00pm 25.7 19.0 -1.2 17 12.3 SSW 24 32 13 17 1012.5 1010.8 0.0
26/07:30pm 26.6 19.9 -1.3 16 12.9 SSW 24 33 13 18 1012.2 1010.6 0.0
26/07:00pm 27.3 20.3 -0.7 16 13.1 SW 26 35 14 19 1012.0 1010.4 0.0
26/06:30pm 28.0 21.1 -0.1 16 13.4 SW 26 32 14 17 1011.7 1010.1 0.0
26/06:00pm 28.1 21.9 -0.1 16 13.4 SW 22 37 12 20 1011.7 1010.1 0.0
26/05:30pm 28.8 22.7 0.5 16 13.7 SW 22 33 12 18 1011.7 1010.1 0.0
26/05:00pm 28.9 23.7 2.2 18 13.3 SSW 19 30 10 16 1011.9 1010.3 0.0
26/04:30pm 29.2 23.7 1.7 17 13.6 SSW 20 33 11 18 1012.0 1010.4 0.0
26/04:00pm 28.1 22.3 2.3 19 12.8 SSW 22 41 12 22 1012.5 1010.8 0.0
26/03:30pm 27.3 23.2 2.4 20 12.3 SSW 13 26 7 14 1012.7 1011.0 0.0
26/03:00pm 27.5 23.1 2.6 20 12.4 SW 15 32 8 17 1012.9 1011.2 0.0
26/02:30pm 27.0 21.6 1.4 19 12.4 SW 19 28 10 15 1013.3 1011.6 0.0
26/02:00pm 26.6 20.6 1.1 19 12.3 SSW 22 33 12 18 1013.6 1011.9 0.0
26/01:30pm 26.2 21.7 4.1 24 11.2 SSE 17 28 9 15 1014.0 1012.3 0.0
26/01:00pm 26.0 21.9 4.5 25 11.0 SSE 15 20 8 11 1014.3 1012.6 0.0
26/12:30pm 24.7 21.0 4.5 27 10.2 SSE 13 26 7 14 1014.6 1012.9 0.0
26/12:00pm 25.3 21.6 4.4 26 10.6 S 13 24 7 13 1014.9 1013.2 0.0
26/11:30am 24.0 20.4 4.9 29 9.7 SE 13 26 7 14 1015.0 1013.4 0.0
26/11:00am 23.4 19.3 4.4 29 9.5 S 15 28 8 15 1015.0 1013.4 0.0
26/10:30am 23.4 19.9 5.3 31 9.2 ESE 13 22 7 12 1015.0 1013.4 0.0
26/10:00am 22.1 17.4 5.1 33 8.5 ESE 19 28 10 15 1015.2 1013.6 0.0
26/09:30am 21.5 16.7 5.4 35 8.1 SE 20 28 11 15 1015.4 1013.8 0.0
26/09:00am 20.8 17.7 5.6 37 7.6 SE 11 19 6 10 1015.7 1014.1 0.0
26/08:30am 19.2 16.0 4.9 39 7.0 SE 11 19 6 10 1015.6 1014.0 0.0
26/08:00am 18.6 15.0 5.1 41 6.6 SE 13 22 7 12 1015.4 1013.8 0.0
26/07:30am 17.5 14.3 5.1 44 6.0 SSE 11 19 6 10 1014.8 1013.1 0.0
26/07:00am 16.5 13.7 5.2 47 5.5 SSE 9 13 5 7 1014.5 1012.8 0.0
26/06:30am 14.7 11.4 6.3 57 4.1 S 13 15 7 8 1014.2 1012.5 0.0
26/06:00am 14.8 11.2 6.9 59 3.9 SSW 15 19 8 10 1014.2 1012.5 0.0
26/05:30am 15.2 10.9 7.0 58 4.1 SSW 19 24 10 13 1013.8 1012.1 0.0
26/05:00am 15.5 11.2 7.0 57 4.2 SSW 19 22 10 12 1013.5 1011.8 0.0
26/04:30am 16.0 11.8 7.5 57 4.3 S 19 24 10 13 1013.2 1011.5 0.0
26/04:00am 16.3 11.9 7.5 56 4.5 SSW 20 24 11 13 1012.9 1011.2 0.0
26/03:30am 17.0 12.2 7.4 53 4.9 SSW 22 28 12 15 1012.7 1011.0 0.0
26/03:00am 17.4 11.8 7.2 51 5.2 SSW 26 32 14 17 1012.3 1010.7 0.0
26/02:30am 17.7 12.5 7.4 51 5.3 SSW 24 30 13 16 1012.8 1011.1 0.0
26/02:00am 18.1 13.3 7.5 50 5.4 SSW 22 28 12 15 1012.7 1011.0 0.0
26/01:30am 18.3 14.2 8.0 51 5.3 SSW 19 24 10 13 1012.9 1011.2 0.0
26/01:00am 18.7 14.5 8.4 51 5.4 SSW 20 28 11 15 1012.8 1011.1 0.0
26/12:30am 19.1 14.6 8.4 50 5.6 SSW 22 28 12 15 1012.8 1011.1 0.0
26/12:00am 19.7 14.1 8.7 49 5.8 SSW 28 35 15 19 1012.6 1010.9 0.0
 
Date/Time
CDT
Temp
°C
App
Temp
°C
Dew
Point
Rel
Hum
%
Delta-T
°C
Wind Press
QNH
hPa
Press
MSL
hPa
Rain
since 9 am
mm
Dir
 
Spd
km/h
Gust
km/h
Spd
kts
Gust
kts
25/11:30pm 20.3 14.7 8.6 47 6.2 SSW 28 35 15 19 1012.3 1010.7 0.0
25/11:00pm 21.1 14.7 8.4 44 6.7 SSW 32 43 17 23 1012.5 1010.8 0.0
25/10:30pm 21.8 15.1 7.2 39 7.6 S 32 46 17 25 1012.2 1010.6 0.0
25/10:00pm 22.1 14.9 5.9 35 8.3 SSW 33 43 18 23 1011.9 1010.3 0.0
25/09:30pm 22.5 14.4 5.4 33 8.7 SSW 37 50 20 27 1011.6 1010.0 0.0
25/09:00pm 23.0 14.8 4.5 30 9.3 SSW 37 50 20 27 1011.2 1009.5 0.0
25/08:30pm 23.8 16.5 4.7 29 9.6 SSW 32 46 17 25 1011.1 1009.4 0.0
25/08:00pm 24.8 16.4 5.6 29 9.9 SSW 39 52 21 28 1010.8 1009.1 0.0
25/07:30pm 25.9 17.1 5.5 27 10.6 SSW 41 52 22 28 1010.4 1008.7 0.0
25/07:00pm 27.6 19.5 5.2 24 11.7 SSW 37 57 20 31 1009.9 1008.2 0.0
25/06:55pm 27.3 19.1 5.0 24 11.6 SSW 37 57 20 31 1009.7 1008.0 0.0
25/06:30pm 28.4 20.7 5.3 23 12.1 SSW 35 48 19 26 1009.7 1008.0 0.0
25/06:00pm 28.2 20.3 4.5 22 12.3 SSW 35 50 19 27 1009.8 1008.1 0.0
25/05:30pm 28.5 21.1 4.1 21 12.6 SSW 32 46 17 25 1009.9 1008.2 0.0

Other Formats:

Comma delimited format used in spreadsheet applications
http://www.bom.gov.au/fwo/IDS60801/IDS60801.94674.axf

JavaScript Object Notation format (JSON) in row-major order
http://www.bom.gov.au/fwo/IDS60801/IDS60801.94674.json